Time;durP1;ratioP1;P1;durP2;ratioP2;P2;SDS_P1;SDS_P2;PMS_P1;PMS_P2;Temp;Humidity;BMP_temperature;BMP_pressure;BME280_temperature;BME280_humidity;BME280_pressure;Samples;Min_cycle;Max_cycle;Signal;HPM_P1;HPM_P2
2021/06/10 00:01:44;;;;;;;12.18;8.82;;;;;;;;;;5053687;28;20083;-72
2021/06/10 00:04:11;;;;;;;11.10;8.85;;;;;;;;;;5053613;28;20060;-73
2021/06/10 00:06:37;;;;;;;13.77;9.30;;;;;;;;;;5052360;28;20028;-71
2021/06/10 00:09:03;;;;;;;11.63;8.45;;;;;;;;;;5053327;28;20083;-71
2021/06/10 00:11:30;;;;;;;16.40;9.18;;;;;;;;;;5054056;28;20509;-71
2021/06/10 00:13:56;;;;;;;17.48;9.27;;;;;;;;;;5056504;28;20032;-70
2021/06/10 00:16:22;;;;;;;15.73;8.93;;;;;;;;;;5059095;28;20366;-71
2021/06/10 00:18:51;;;;;;;13.65;8.98;;;;;;;;;;5058786;28;20079;-70
2021/06/10 00:21:17;;;;;;;10.65;9.30;;;;;;;;;;5059690;28;20017;-73
2021/06/10 00:23:43;;;;;;;12.57;9.20;;;;;;;;;;5057755;28;20132;-70
2021/06/10 00:26:10;;;;;;;11.32;9.45;;;;;;;;;;5058239;28;20035;-70
2021/06/10 00:28:36;;;;;;;11.82;9.27;;;;;;;;;;5057393;28;20033;-72
2021/06/10 00:31:03;;;;;;;11.23;9.40;;;;;;;;;;5058289;28;20028;-71
2021/06/10 00:33:29;;;;;;;14.70;10.23;;;;;;;;;;5060098;28;20025;-70
2021/06/10 00:35:56;;;;;;;11.25;9.30;;;;;;;;;;5060300;28;20025;-70
2021/06/10 00:38:22;;;;;;;15.00;10.18;;;;;;;;;;5059037;28;20099;-73
2021/06/10 00:40:48;;;;;;;15.75;9.82;;;;;;;;;;5060812;28;20477;-75
2021/06/10 00:43:15;;;;;;;13.65;9.95;;;;;;;;;;5057828;28;20021;-73
2021/06/10 00:45:41;;;;;;;10.02;8.60;;;;;;;;;;5058819;28;20099;-70
2021/06/10 00:48:08;;;;;;;13.13;9.68;;;;;;;;;;5055302;28;20028;-73
2021/06/10 00:50:43;;;;;;;11.20;10.05;;;;;;;;;;5051646;28;20120;-71
2021/06/10 00:53:20;;;;;;;14.52;9.55;;;;;;;;;;5053139;28;20025;-74
2021/06/10 00:55:47;;;;;;;12.32;9.13;;;;;;;;;;5051709;28;20037;-72
2021/06/10 00:58:13;;;;;;;15.07;10.05;;;;;;;;;;5051884;28;20433;-74
2021/06/10 01:00:39;;;;;;;12.40;9.63;;;;;;;;;;5052888;28;20128;-72
2021/06/10 01:03:05;;;;;;;14.23;9.90;;;;;;;;;;5053122;28;20025;-71
2021/06/10 01:05:32;;;;;;;15.65;9.85;;;;;;;;;;5053068;28;20234;-71
2021/06/10 01:08:04;;;;;;;14.27;9.70;;;;;;;;;;5052810;28;20024;-70
2021/06/10 01:10:49;;;;;;;13.10;9.77;;;;;;;;;;5052568;28;20028;-71
2021/06/10 01:13:35;;;;;;;14.15;9.48;;;;;;;;;;5051360;28;20091;-69
2021/06/10 01:16:03;;;;;;;11.60;9.50;;;;;;;;;;5051481;28;20052;-71
2021/06/10 01:18:31;;;;;;;11.07;9.20;;;;;;;;;;5052724;28;20351;-69
2021/06/10 01:20:58;;;;;;;10.38;9.27;;;;;;;;;;5052725;28;20021;-69
2021/06/10 01:23:35;;;;;;;12.85;9.65;;;;;;;;;;5051115;28;20017;-70
2021/06/10 01:26:08;;;;;;;11.13;9.85;;;;;;;;;;5052410;28;20021;-70
2021/06/10 01:28:36;;;;;;;11.23;9.75;;;;;;;;;;5052678;28;20025;-71
2021/06/10 01:31:03;;;;;;;12.98;9.85;;;;;;;;;;5055403;28;20021;-72
2021/06/10 01:33:30;;;;;;;14.20;9.50;;;;;;;;;;5055090;28;20051;-71
2021/06/10 01:35:57;;;;;;;14.90;9.50;;;;;;;;;;5056505;28;20036;-70
2021/06/10 01:38:25;;;;;;;13.68;10.23;;;;;;;;;;5056437;28;20063;-70
2021/06/10 01:40:52;;;;;;;11.60;10.20;;;;;;;;;;5056336;28;20100;-70
2021/06/10 01:43:18;;;;;;;12.13;9.48;;;;;;;;;;5055008;28;20101;-71
2021/06/10 01:45:49;;;;;;;17.05;10.45;;;;;;;;;;5056262;28;20462;-71
2021/06/10 01:48:15;;;;;;;15.60;9.98;;;;;;;;;;5056321;28;20036;-70
2021/06/10 01:50:42;;;;;;;12.68;9.35;;;;;;;;;;5056453;28;20120;-71
2021/06/10 01:53:14;;;;;;;13.68;10.02;;;;;;;;;;5054798;28;20037;-72
2021/06/10 01:55:40;;;;;;;14.43;10.20;;;;;;;;;;5056146;28;20040;-72
2021/06/10 01:58:07;;;;;;;10.70;9.40;;;;;;;;;;5054831;28;20070;-71
2021/06/10 02:00:34;;;;;;;12.90;9.93;;;;;;;;;;5056073;28;20021;-70
2021/06/10 02:03:01;;;;;;;13.77;10.10;;;;;;;;;;5055955;28;20044;-73
2021/06/10 02:05:27;;;;;;;13.32;9.82;;;;;;;;;;5056192;28;20028;-71
2021/06/10 02:07:54;;;;;;;11.18;9.70;;;;;;;;;;5056198;28;20497;-72
2021/06/10 02:10:22;;;;;;;11.68;10.35;;;;;;;;;;5055527;28;20066;-71
2021/06/10 02:12:48;;;;;;;16.38;9.45;;;;;;;;;;5055720;28;20529;-71
2021/06/10 02:15:15;;;;;;;16.70;10.27;;;;;;;;;;5055658;28;20041;-71
2021/06/10 02:17:42;;;;;;;10.32;9.25;;;;;;;;;;5055713;28;20025;-69
2021/06/10 02:20:08;;;;;;;11.60;9.82;;;;;;;;;;5055658;28;20040;-70
2021/06/10 02:22:35;;;;;;;14.57;10.07;;;;;;;;;;5055586;28;20033;-72
2021/06/10 02:25:02;;;;;;;11.60;9.15;;;;;;;;;;5055503;28;20497;-71
2021/06/10 02:27:29;;;;;;;14.32;9.90;;;;;;;;;;5054224;28;20075;-71
2021/06/10 02:29:55;;;;;;;11.68;9.38;;;;;;;;;;5055170;28;20489;-70
2021/06/10 02:32:21;;;;;;;11.57;9.60;;;;;;;;;;5055442;28;20025;-71
2021/06/10 02:34:48;;;;;;;13.02;9.50;;;;;;;;;;5054960;28;20500;-70
2021/06/10 02:37:16;;;;;;;16.00;9.82;;;;;;;;;;5055396;28;20111;-72
2021/06/10 02:39:45;;;;;;;12.73;9.35;;;;;;;;;;5055249;28;20108;-75
2021/06/10 02:42:12;;;;;;;9.30;8.35;;;;;;;;;;5053926;28;20021;-71
2021/06/10 02:44:40;;;;;;;12.35;8.90;;;;;;;;;;5055180;28;20029;-72
2021/06/10 02:47:07;;;;;;;14.70;9.15;;;;;;;;;;5055188;28;20021;-72
2021/06/10 02:49:34;;;;;;;12.07;9.85;;;;;;;;;;5053828;28;20025;-72
2021/06/10 02:52:01;;;;;;;11.23;9.15;;;;;;;;;;5055022;28;20029;-72
2021/06/10 02:54:28;;;;;;;10.30;9.20;;;;;;;;;;5053733;28;20036;-72
2021/06/10 02:56:55;;;;;;;10.35;9.35;;;;;;;;;;5055299;28;20021;-72
2021/06/10 02:59:23;;;;;;;13.45;8.95;;;;;;;;;;5054852;28;20091;-72
2021/06/10 03:01:51;;;;;;;13.60;9.65;;;;;;;;;;5054915;28;20368;-72
2021/06/10 03:04:17;;;;;;;14.40;9.50;;;;;;;;;;5054831;28;20025;-74
2021/06/10 03:06:44;;;;;;;10.65;8.85;;;;;;;;;;5053559;28;20029;-74
2021/06/10 03:09:12;;;;;;;12.85;8.43;;;;;;;;;;5053425;28;20064;-75
2021/06/10 03:11:39;;;;;;;18.17;8.98;;;;;;;;;;5054643;28;20154;-74
2021/06/10 03:14:07;;;;;;;10.35;7.97;;;;;;;;;;5053273;28;20048;-74
2021/06/10 03:16:34;;;;;;;13.95;8.60;;;;;;;;;;5054843;28;20099;-70
2021/06/10 03:19:01;;;;;;;9.25;8.23;;;;;;;;;;5054261;28;20447;-70
2021/06/10 03:21:27;;;;;;;9.13;7.78;;;;;;;;;;5054475;28;20488;-70
2021/06/10 03:23:54;;;;;;;11.32;7.72;;;;;;;;;;5054188;28;20048;-70
2021/06/10 03:26:24;;;;;;;15.00;8.90;;;;;;;;;;5054425;28;20492;-69
2021/06/10 03:28:50;;;;;;;12.88;8.63;;;;;;;;;;5054414;28;20067;-70
2021/06/10 03:31:17;;;;;;;12.20;8.60;;;;;;;;;;5054244;28;20380;-72
2021/06/10 03:33:44;;;;;;;11.57;8.65;;;;;;;;;;5054184;28;20027;-71
2021/06/10 03:36:11;;;;;;;17.17;8.52;;;;;;;;;;5054223;28;20036;-71
2021/06/10 03:38:39;;;;;;;11.88;8.52;;;;;;;;;;5054188;28;20108;-71
2021/06/10 03:41:05;;;;;;;12.48;8.18;;;;;;;;;;5052765;28;20025;-72
2021/06/10 03:43:32;;;;;;;10.35;9.15;;;;;;;;;;5052756;28;20056;-71
2021/06/10 03:45:58;;;;;;;9.73;7.88;;;;;;;;;;5052377;28;20021;-72
2021/06/10 03:48:25;;;;;;;11.50;9.27;;;;;;;;;;5053985;28;20103;-73
2021/06/10 03:50:51;;;;;;;10.35;8.43;;;;;;;;;;5054167;28;20415;-73
2021/06/10 03:53:19;;;;;;;11.43;8.82;;;;;;;;;;5052203;28;20060;-72
2021/06/10 03:55:45;;;;;;;14.68;9.05;;;;;;;;;;5054100;28;20033;-72
2021/06/10 03:58:11;;;;;;;11.23;8.23;;;;;;;;;;5052517;28;20025;-71
2021/06/10 04:00:38;;;;;;;11.20;8.50;;;;;;;;;;5053799;28;20025;-72
2021/06/10 04:03:04;;;;;;;11.70;8.98;;;;;;;;;;5053708;28;20112;-72
2021/06/10 04:05:31;;;;;;;11.73;8.30;;;;;;;;;;5053654;28;20060;-72
2021/06/10 04:07:58;;;;;;;13.73;9.00;;;;;;;;;;5052344;28;20493;-72
2021/06/10 04:10:25;;;;;;;9.20;8.05;;;;;;;;;;5053509;28;20025;-72
2021/06/10 04:12:51;;;;;;;13.68;8.50;;;;;;;;;;5052130;28;20048;-72
2021/06/10 04:15:18;;;;;;;10.60;8.65;;;;;;;;;;5053360;28;20033;-72
2021/06/10 04:17:45;;;;;;;11.07;8.57;;;;;;;;;;5053514;28;20433;-72
2021/06/10 04:20:12;;;;;;;11.98;8.52;;;;;;;;;;5053393;28;20029;-72
2021/06/10 04:22:39;;;;;;;13.50;8.68;;;;;;;;;;5053412;28;20531;-73
2021/06/10 04:25:06;;;;;;;11.73;7.75;;;;;;;;;;5052961;28;20141;-71
2021/06/10 04:27:32;;;;;;;12.02;8.23;;;;;;;;;;5053036;28;20440;-72
2021/06/10 04:29:58;;;;;;;10.02;8.13;;;;;;;;;;5053225;28;20021;-71
2021/06/10 04:32:24;;;;;;;11.27;7.60;;;;;;;;;;5051943;28;20028;-71
2021/06/10 04:34:51;;;;;;;9.45;8.13;;;;;;;;;;5053116;28;20048;-70
2021/06/10 04:37:18;;;;;;;12.52;7.85;;;;;;;;;;5051924;28;20025;-72
2021/06/10 04:39:44;;;;;;;11.05;8.30;;;;;;;;;;5051795;28;20487;-71
2021/06/10 04:42:11;;;;;;;9.32;7.47;;;;;;;;;;5053063;28;20038;-70
2021/06/10 04:44:37;;;;;;;10.75;8.48;;;;;;;;;;5051765;28;20052;-70
2021/06/10 04:47:04;;;;;;;11.13;7.55;;;;;;;;;;5051707;28;20025;-70
2021/06/10 04:49:34;;;;;;;11.55;8.20;;;;;;;;;;5053044;28;20029;-71
2021/06/10 04:52:00;;;;;;;10.30;7.95;;;;;;;;;;5053248;28;20017;-71
2021/06/10 04:54:26;;;;;;;11.75;8.93;;;;;;;;;;5051534;28;20025;-71
2021/06/10 04:56:52;;;;;;;10.10;8.15;;;;;;;;;;5052918;28;20056;-70
2021/06/10 04:59:19;;;;;;;9.50;8.52;;;;;;;;;;5052947;28;20033;-71
2021/06/10 05:01:45;;;;;;;11.75;8.52;;;;;;;;;;5052570;28;20487;-72
2021/06/10 05:04:11;;;;;;;9.70;8.65;;;;;;;;;;5052838;28;20448;-72
2021/06/10 05:06:37;;;;;;;17.25;7.95;;;;;;;;;;5056822;28;20086;-70
2021/06/10 05:09:04;;;;;;;9.90;7.97;;;;;;;;;;5057041;28;20024;-72
2021/06/10 05:11:30;;;;;;;13.95;8.63;;;;;;;;;;5055512;28;20070;-69
2021/06/10 05:13:56;;;;;;;11.98;8.35;;;;;;;;;;5056634;28;20079;-69
2021/06/10 05:16:26;;;;;;;14.32;8.50;;;;;;;;;;5056833;28;20032;-73
2021/06/10 05:18:52;;;;;;;11.35;8.25;;;;;;;;;;5055571;28;20493;-71
2021/06/10 05:21:18;;;;;;;9.63;8.43;;;;;;;;;;5056740;28;20037;-72
2021/06/10 05:23:44;;;;;;;13.75;8.90;;;;;;;;;;5056416;28;20109;-72
2021/06/10 05:26:11;;;;;;;11.73;8.18;;;;;;;;;;5055339;28;20048;-74
2021/06/10 05:28:37;;;;;;;17.00;8.88;;;;;;;;;;5056630;28;20024;-71
2021/06/10 05:31:07;;;;;;;11.48;9.02;;;;;;;;;;5056488;28;20025;-70
2021/06/10 05:33:34;;;;;;;10.57;8.38;;;;;;;;;;5056470;28;20503;-74
2021/06/10 05:36:01;;;;;;;10.52;8.73;;;;;;;;;;5054892;28;20031;-73
2021/06/10 05:38:27;;;;;;;9.30;8.07;;;;;;;;;;5055181;28;20025;-72
2021/06/10 05:40:54;;;;;;;8.00;7.22;;;;;;;;;;5056640;28;20060;-73
2021/06/10 05:43:22;;;;;;;9.48;7.50;;;;;;;;;;5056507;28;20029;-72
2021/06/10 05:45:49;;;;;;;9.40;7.45;;;;;;;;;;5054924;28;20120;-70
2021/06/10 05:48:15;;;;;;;13.50;7.63;;;;;;;;;;5054899;28;20048;-72
2021/06/10 05:50:41;;;;;;;13.95;7.78;;;;;;;;;;5056001;28;20067;-71
2021/06/10 05:53:08;;;;;;;16.52;7.65;;;;;;;;;;5056354;28;20426;-72
2021/06/10 05:55:34;;;;;;;14.93;8.70;;;;;;;;;;5055972;28;20028;-73
2021/06/10 05:58:00;;;;;;;11.70;8.65;;;;;;;;;;5056065;28;20032;-71
2021/06/10 06:00:27;;;;;;;8.80;7.75;;;;;;;;;;5055706;28;20025;-71
2021/06/10 06:02:53;;;;;;;10.88;8.50;;;;;;;;;;5054665;28;20458;-72
2021/06/10 06:05:19;;;;;;;13.32;9.13;;;;;;;;;;5055834;28;20028;-70
2021/06/10 06:07:45;;;;;;;11.20;8.63;;;;;;;;;;5054302;28;20040;-71
2021/06/10 06:10:12;;;;;;;12.57;8.65;;;;;;;;;;5056088;28;20105;-72
2021/06/10 06:12:40;;;;;;;13.68;9.40;;;;;;;;;;5054146;28;20029;-72
2021/06/10 06:15:07;;;;;;;11.15;8.65;;;;;;;;;;5054293;28;20060;-72
2021/06/10 06:17:34;;;;;;;10.50;8.77;;;;;;;;;;5055529;28;20434;-73
2021/06/10 06:20:00;;;;;;;11.30;8.32;;;;;;;;;;5054227;28;20044;-72
2021/06/10 06:22:28;;;;;;;12.82;8.25;;;;;;;;;;5054226;28;20029;-73
2021/06/10 06:24:54;;;;;;;8.68;7.85;;;;;;;;;;5055458;28;20049;-73
2021/06/10 06:27:21;;;;;;;11.85;7.55;;;;;;;;;;5054130;28;20048;-72
2021/06/10 06:29:47;;;;;;;9.32;7.93;;;;;;;;;;5054177;28;20028;-73
2021/06/10 06:32:14;;;;;;;11.20;7.75;;;;;;;;;;5054042;28;20115;-72
2021/06/10 06:34:40;;;;;;;8.68;7.72;;;;;;;;;;5055246;28;20112;-73
2021/06/10 06:37:06;;;;;;;9.00;7.72;;;;;;;;;;5055464;28;20536;-72
2021/06/10 06:39:32;;;;;;;9.05;8.15;;;;;;;;;;5054041;28;20385;-71
2021/06/10 06:41:59;;;;;;;7.75;6.93;;;;;;;;;;5053905;28;20023;-73
2021/06/10 06:44:25;;;;;;;9.65;7.60;;;;;;;;;;5054993;28;20032;-72
2021/06/10 06:46:51;;;;;;;10.98;6.80;;;;;;;;;;5054951;28;20025;-72
2021/06/10 06:49:17;;;;;;;10.27;6.82;;;;;;;;;;5050531;28;20041;-71
2021/06/10 06:51:44;;;;;;;10.52;6.35;;;;;;;;;;5054434;28;20159;-72
2021/06/10 06:54:10;;;;;;;13.30;6.93;;;;;;;;;;5053446;28;20119;-72
2021/06/10 06:56:36;;;;;;;9.65;6.57;;;;;;;;;;5054539;28;20049;-72
2021/06/10 06:59:02;;;;;;;14.88;6.65;;;;;;;;;;5054880;28;20064;-72
2021/06/10 07:01:28;;;;;;;11.98;6.82;;;;;;;;;;5054771;28;20068;-72
2021/06/10 07:03:55;;;;;;;6.75;6.05;;;;;;;;;;5053419;28;20548;-72
2021/06/10 07:06:21;;;;;;;9.40;6.55;;;;;;;;;;5054542;28;20104;-72
2021/06/10 07:08:47;;;;;;;8.85;6.32;;;;;;;;;;5054837;28;20024;-70
2021/06/10 07:11:13;;;;;;;12.45;6.47;;;;;;;;;;5054473;28;20017;-70
2021/06/10 07:13:40;;;;;;;9.02;6.20;;;;;;;;;;5054399;28;20033;-71
2021/06/10 07:16:06;;;;;;;8.60;6.43;;;;;;;;;;5054078;28;20052;-71
2021/06/10 07:18:32;;;;;;;13.93;6.38;;;;;;;;;;5054133;28;20024;-68
2021/06/10 07:20:58;;;;;;;9.88;6.13;;;;;;;;;;5052651;28;20106;-72
2021/06/10 07:23:25;;;;;;;8.43;5.90;;;;;;;;;;5052311;28;20029;-71
2021/06/10 07:25:51;;;;;;;10.73;6.90;;;;;;;;;;5054376;28;20072;-70
2021/06/10 07:28:17;;;;;;;8.13;7.25;;;;;;;;;;5052066;28;20025;-71
2021/06/10 07:30:44;;;;;;;8.27;7.45;;;;;;;;;;5054219;28;20036;-70
2021/06/10 07:33:10;;;;;;;8.85;6.53;;;;;;;;;;5052781;28;20116;-70
2021/06/10 07:35:36;;;;;;;8.52;7.05;;;24.00;99.90;;;;;;5053888;28;20039;-71
2021/06/10 07:38:04;;;;;;;13.38;7.72;;;24.10;99.90;;;;;;5054058;28;20033;-71
2021/06/10 07:40:30;;;;;;;7.50;6.80;;;24.00;99.90;;;;;;5054097;28;20101;-70
2021/06/10 07:42:57;;;;;;;8.27;7.32;;;24.00;99.90;;;;;;5053268;28;20791;-72
2021/06/10 07:45:26;;;;;;;8.30;7.03;;;24.00;99.90;;;;;;5053506;28;20458;-72
2021/06/10 07:47:51;;;;;;;9.75;6.97;;;24.10;99.90;;;;;;5053616;28;20025;-72
2021/06/10 07:50:17;;;;;;;7.75;6.63;;;24.30;99.90;;;;;;5053976;28;20131;-72
2021/06/10 07:52:43;;;;;;;8.25;6.50;;;24.50;99.90;;;;;;5053567;28;20075;-71
2021/06/10 07:55:10;;;;;;;8.32;6.82;;;24.50;99.90;;;;;;5053461;28;20113;-72
2021/06/10 07:57:36;;;;;;;7.88;6.45;;;24.50;99.90;;;;;;5052483;28;20033;-72
2021/06/10 08:00:04;;;;;;;8.45;6.22;;;24.40;99.90;;;;;;5052484;28;20025;-72
2021/06/10 08:02:30;;;;;;;6.40;5.80;;;24.20;99.70;;;;;;5053212;28;20432;-71
2021/06/10 08:04:56;;;;;;;9.10;6.20;;;24.30;99.30;;;;;;5053852;28;20029;-73
2021/06/10 08:07:21;;;;;;;5.13;4.63;;;24.20;99.50;;;;;;5052231;28;20052;-72
2021/06/10 08:09:48;;;;;;;8.32;5.57;;;;;;;;;;5053572;28;20046;-73
2021/06/10 08:12:13;;;;;;;9.40;5.68;;;25.00;98.80;;;;;;5053562;28;20138;-70
2021/06/10 08:14:39;;;;;;;6.97;4.97;;;25.00;99.10;;;;;;5053390;28;20137;-72
2021/06/10 08:17:06;;;;;;;9.43;5.60;;;25.10;97.50;;;;;;5051535;28;20029;-71
2021/06/10 08:19:32;;;;;;;7.55;5.38;;;25.00;97.50;;;;;;5053337;28;20027;-72
2021/06/10 08:21:58;;;;;;;6.18;5.07;;;25.00;97.00;;;;;;5051910;28;20072;-70
2021/06/10 08:24:24;;;;;;;6.97;4.63;;;25.30;96.70;;;;;;5053189;28;20072;-73
2021/06/10 08:26:51;;;;;;;5.28;4.75;;;25.10;96.20;;;;;;5051712;28;20115;-72
2021/06/10 08:29:17;;;;;;;6.93;4.50;;;25.00;96.40;;;;;;5051257;28;20051;-72
2021/06/10 08:31:43;;;;;;;9.50;5.47;;;25.40;96.30;;;;;;5051855;28;20150;-72
2021/06/10 08:34:09;;;;;;;5.53;5.03;;;25.90;96.40;;;;;;5052699;28;20040;-70
2021/06/10 08:36:35;;;;;;;7.40;5.10;;;26.20;96.20;;;;;;5052285;28;20033;-72
2021/06/10 08:39:01;;;;;;;7.45;5.68;;;26.40;96.30;;;;;;5053105;28;20082;-71
2021/06/10 08:41:28;;;;;;;6.25;5.20;;;26.50;96.60;;;;;;5051671;28;20374;-74
2021/06/10 08:43:56;;;;;;;5.00;4.15;;;26.50;95.80;;;;;;5052996;28;20067;-72
2021/06/10 08:46:23;;;;;;;4.10;3.70;;;26.40;94.10;;;;;;5052812;28;20488;-71
2021/06/10 08:49:18;;;;;;;4.25;3.50;;;26.60;92.50;;;;;;5051221;28;20033;-72
2021/06/10 08:51:44;;;;;;;5.85;3.78;;;;;;;;;;5052955;28;20025;-71
2021/06/10 08:54:11;;;;;;;3.38;3.17;;;;;;;;;;5053003;28;20064;-71
2021/06/10 08:56:40;;;;;;;5.68;3.88;;;;;;;;;;5051513;28;20029;-71
2021/06/10 08:59:09;;;;;;;4.05;3.58;;;;;;;;;;5052755;28;20028;-71
2021/06/10 09:01:35;;;;;;;6.93;3.47;;;;;;;;;;5052766;28;20025;-72
2021/06/10 09:04:02;;;;;;;5.43;3.30;;;;;;;;;;5052611;28;20466;-71
2021/06/10 09:06:45;;;;;;;4.28;3.42;;;;;;;;;;5052538;28;20071;-71
2021/06/10 09:09:11;;;;;;;5.95;3.70;;;;;;;;;;5051368;28;20635;-73
2021/06/10 09:11:38;;;;;;;4.15;3.85;;;;;;;;;;5051198;28;20032;-75
2021/06/10 09:14:08;;;;;;;4.97;3.05;;;;;;;;;;5051297;28;20025;-71
2021/06/10 09:16:35;;;;;;;3.33;2.90;;;;;;;;;;5052652;28;20343;-75
2021/06/10 09:19:06;;;;;;;4.15;3.42;;;;;;;;;;5052622;28;20028;-72
2021/06/10 09:21:35;;;;;;;11.30;3.60;;;;;;;;;;5050978;28;20021;-72
2021/06/10 09:24:19;;;;;;;4.10;2.70;;;;;;;;;;5050716;28;20629;-71
2021/06/10 09:26:47;;;;;;;5.60;3.00;;;;;;;;;;5052391;28;20021;-73
2021/06/10 09:29:13;;;;;;;9.43;3.05;;;;;;;;;;5052549;28;20132;-71
2021/06/10 09:31:41;;;;;;;3.40;3.10;;;;;;;;;;5052758;28;20474;-74
2021/06/10 09:34:09;;;;;;;8.98;2.97;;;;;;;;;;5052399;28;20082;-71
2021/06/10 09:36:42;;;;;;;5.82;3.33;;;;;;;;;;5052495;28;20025;-73
2021/06/10 09:39:15;;;;;;;4.68;2.88;;;;;;;;;;5052111;28;20052;-74
2021/06/10 09:42:00;;;;;;;5.03;3.00;;;;;;;;;;5052599;28;20029;-73
2021/06/10 09:44:36;;;;;;;7.35;2.95;;;;;;;;;;5052415;28;20082;-72
2021/06/10 09:47:03;;;;;;;4.72;2.63;;;;;;;;;;5052362;28;20478;-76
2021/06/10 09:49:29;;;;;;;4.95;3.22;;;;;;;;;;5052540;28;20559;-71
2021/06/10 09:51:55;;;;;;;6.22;3.10;;;;;;;;;;5054814;28;20113;-74
2021/06/10 09:54:40;;;;;;;3.88;2.58;;;;;;;;;;5054522;28;20036;-72
2021/06/10 09:57:07;;;;;;;6.15;2.65;;;;;;;;;;5055988;28;20033;-75
2021/06/10 09:59:50;;;;;;;6.57;3.25;;;;;;;;;;5055865;28;20025;-73
2021/06/10 10:02:21;;;;;;;6.55;2.88;;;;;;;;;;5054579;28;20031;-74
2021/06/10 10:04:59;;;;;;;4.60;3.35;;;;;;;;;;5054594;28;20032;-75
2021/06/10 10:07:30;;;;;;;13.23;5.35;;;;;;;;;;5055474;28;20025;-71
2021/06/10 10:09:57;;;;;;;7.55;3.65;;;;;;;;;;5054591;28;20029;-74
2021/06/10 10:12:25;;;;;;;4.93;3.10;;;;;;;;;;5055709;28;20047;-74
2021/06/10 10:14:51;;;;;;;3.45;3.10;;;;;;;;;;5055603;28;20118;-70
2021/06/10 10:17:18;;;;;;;3.80;3.30;;;;;;;;;;5054107;28;20025;-72
2021/06/10 10:19:45;;;;;;;4.15;2.78;;;;;;;;;;5055652;28;20013;-71
2021/06/10 10:22:13;;;;;;;15.60;3.67;;;;;;;;;;5055566;28;20053;-72
2021/06/10 10:24:39;;;;;;;5.63;3.83;;;;;;;;;;5055078;28;20052;-73
2021/06/10 10:27:09;;;;;;;3.70;3.40;;;;;;;;;;5055265;28;20124;-69
2021/06/10 10:29:36;;;;;;;4.55;3.03;;;;;;;;;;5054189;28;20033;-70
2021/06/10 10:32:02;;;;;;;11.18;4.40;;;;;;;;;;5055485;28;20029;-72
2021/06/10 10:34:30;;;;;;;6.40;4.32;;;;;;;;;;5053988;28;20025;-72
2021/06/10 10:36:57;;;;;;;4.13;3.63;;;;;;;;;;5055386;28;20029;-71
2021/06/10 10:39:32;;;;;;;5.00;4.50;;;;;;;;;;5053794;28;20025;-70
2021/06/10 10:41:59;;;;;;;8.82;3.90;;;;;;;;;;5055199;28;20052;-72
2021/06/10 10:44:31;;;;;;;5.47;4.25;;;;;;;;;;5055139;28;20025;-72
2021/06/10 10:47:00;;;;;;;3.88;3.58;;;;;;;;;;5055251;28;20102;-72
2021/06/10 10:49:29;;;;;;;4.20;3.90;;;;;;;;;;5055040;28;20147;-71
2021/06/10 10:51:55;;;;;;;6.25;3.85;;;;;;;;;;5053762;28;20024;-71
2021/06/10 10:54:31;;;;;;;5.95;3.60;;;;;;;;;;5054889;28;20033;-71
2021/06/10 10:56:57;;;;;;;6.22;4.30;;;;;;;;;;5055056;28;20043;-69
2021/06/10 10:59:23;;;;;;;4.30;3.67;;;;;;;;;;5054935;28;20539;-72
2021/06/10 11:02:23;;;;;;;5.50;3.63;;;;;;;;;;5054437;28;20079;-71
2021/06/10 11:04:49;;;;;;;3.83;3.42;;;;;;;;;;4957413;28;20516;-70
2021/06/10 11:07:44;;;;;;;18.25;4.25;;;;;;;;;;4973664;28;20039;-71
2021/06/10 11:10:11;;;;;;;5.45;2.65;;;;;;;;;;4960285;28;20504;-72
2021/06/10 11:12:50;;;;;;;5.72;3.03;;;;;;;;;;4973548;28;20038;-71
2021/06/10 11:15:23;;;;;;;3.75;2.83;;;;;;;;;;4957192;28;20035;-72
2021/06/10 11:17:55;;;;;;;4.57;2.80;;;;;;;;;;4973839;28;20519;-71
2021/06/10 11:20:40;;;;;;;14.13;3.67;;;;;;;;;;4973343;28;20114;-71
2021/06/10 11:23:12;;;;;;;4.32;3.92;;;;;;;;;;4973376;28;20039;-73
2021/06/10 11:25:41;;;;;;;3.40;3.10;;;;;;;;;;5048660;28;20072;-71
2021/06/10 11:28:10;;;;;;;3.30;3.00;;;;;;;;;;5054461;28;20415;-72
2021/06/10 11:30:38;;;;;;;3.65;3.35;;;;;;;;;;5054312;28;20029;-73
2021/06/10 11:33:04;;;;;;;4.25;3.20;;;;;;;;;;5052929;28;20112;-71
2021/06/10 11:35:43;;;;;;;4.95;2.80;;;;;;;;;;5052406;28;20029;-73
2021/06/10 11:38:21;;;;;;;4.40;3.28;;;;;;;;;;5054372;28;20094;-73
2021/06/10 11:40:59;;;;;;;2.95;2.70;;;;;;;;;;5054226;28;20021;-72
2021/06/10 11:43:26;;;;;;;5.38;2.90;;;;;;;;;;5053035;28;20481;-71
2021/06/10 11:45:58;;;;;;;4.72;2.72;;;;;;;;;;5052744;28;20040;-72
2021/06/10 11:48:41;;;;;;;3.72;2.70;;;;;;;;;;5052673;28;20110;-71
2021/06/10 11:51:08;;;;;;;3.03;2.75;;;;;;;;;;5054336;28;20112;-74
2021/06/10 11:53:34;;;;;;;4.28;2.30;;;;;;;;;;5052649;28;20560;-74
2021/06/10 11:56:01;;;;;;;3.28;2.63;;;;;;;;;;5053826;28;20089;-74
2021/06/10 11:58:29;;;;;;;3.33;2.97;;;;;;;;;;5053832;28;20036;-70
2021/06/10 12:00:55;;;;;;;2.67;2.47;;;;;;;;;;5053777;28;20104;-70
2021/06/10 12:03:22;;;;;;;3.13;2.80;;;;;;;;;;5053306;28;20369;-71
2021/06/10 12:05:53;;;;;;;2.80;2.53;;;;;;;;;;5053743;28;20032;-70
2021/06/10 12:08:20;;;;;;;2.83;2.50;;;;;;;;;;5053562;28;20032;-71
2021/06/10 12:10:51;;;;;;;5.57;3.03;;;;;;;;;;5053568;28;20032;-71
2021/06/10 12:13:24;;;;;;;4.07;2.20;;;;;;;;;;5053334;28;20032;-72
2021/06/10 12:15:51;;;;;;;4.13;2.97;;;;;;;;;;5053175;28;20469;-70
2021/06/10 12:18:18;;;;;;;3.38;2.80;;;;;;;;;;5053422;28;20040;-74
2021/06/10 12:20:45;;;;;;;3.63;2.47;;;;;;;;;;5053380;28;20028;-70
2021/06/10 12:23:18;;;;;;;4.93;2.70;;;;;;;;;;5053611;28;20016;-70
2021/06/10 12:25:55;;;;;;;5.22;3.28;;;;;;;;;;5053572;28;20055;-72
2021/06/10 12:28:44;;;;;;;4.38;2.60;;;;;;;;;;5054029;28;20029;-70
2021/06/10 12:31:29;;;;;;;4.55;2.95;;;;;;;;;;5055938;28;20032;-70
2021/06/10 12:33:57;;;;;;;2.42;2.22;;;;;;;;;;5056850;28;20036;-72
2021/06/10 12:36:31;;;;;;;3.00;2.75;;;;;;;;;;5056709;28;20029;-70
2021/06/10 12:39:01;;;;;;;2.83;2.58;;;;;;;;;;5055201;28;20025;-70
2021/06/10 12:41:47;;;;;;;2.40;2.20;;;;;;;;;;5055365;28;20021;-71
2021/06/10 12:44:14;;;;;;;2.50;2.35;;;;;;;;;;5056705;28;20154;-70
2021/06/10 12:46:43;;;;;;;4.28;3.63;;;;;;;;;;5055092;28;20397;-71
2021/06/10 12:49:10;;;;;;;3.83;3.20;;;;;;;;;;5052974;28;20346;-73
2021/06/10 12:51:41;;;;;;;3.50;2.35;;;;;;;;;;5053071;28;20025;-70
2021/06/10 12:54:07;;;;;;;5.97;3.30;;;;;;;;;;5052936;28;20029;-73
2021/06/10 12:56:37;;;;;;;2.75;2.50;;;;;;;;;;5051827;28;20424;-71
2021/06/10 12:59:04;;;;;;;2.25;2.15;;;;;;;;;;5052887;28;20025;-71
2021/06/10 13:01:30;;;;;;;2.78;2.58;;;;;;;;;;5052895;28;20021;-71
2021/06/10 13:03:56;;;;;;;8.30;3.20;;;;;;;;;;5051409;28;20445;-69
2021/06/10 13:06:24;;;;;;;3.42;2.97;;;;;;;;;;5052847;28;20032;-71
2021/06/10 13:08:50;;;;;;;5.65;2.60;;;;;;;;;;5051500;28;20120;-75
2021/06/10 13:11:17;;;;;;;2.75;2.50;;;;;;;;;;5052825;28;20017;-71
2021/06/10 13:13:43;;;;;;;2.65;2.45;;;;;;;;;;5052776;28;20032;-72
2021/06/10 13:16:13;;;;;;;2.60;2.40;;;;;;;;;;5051273;28;20040;-72
2021/06/10 13:18:40;;;;;;;3.10;2.47;;;;;;;;;;5051275;28;20025;-70
2021/06/10 13:21:20;;;;;;;3.05;2.85;;;;;;;;;;5051661;28;20450;-72
2021/06/10 13:23:49;;;;;;;5.77;3.23;;;;;;;;;;5052397;28;20045;-72
2021/06/10 13:26:26;;;;;;;3.13;2.83;;;;;;;;;;5054265;28;20037;-74
2021/06/10 13:29:00;;;;;;;3.92;3.08;;;;;;;;;;5056613;28;20059;-70
2021/06/10 13:31:40;;;;;;;4.90;2.85;;;;;;;;;;5056698;28;20045;-72
2021/06/10 13:34:08;;;;;;;3.20;2.88;;;;;;;;;;5056575;28;20033;-71
2021/06/10 13:36:55;;;;;;;2.88;2.67;;;;;;;;;;5056569;28;20029;-74
2021/06/10 13:39:22;;;;;;;3.13;2.92;;;;;;;;;;5056250;28;20036;-74
2021/06/10 13:41:49;;;;;;;3.88;3.30;;;;;;;;;;5055178;28;20036;-74
2021/06/10 13:44:16;;;;;;;4.88;3.50;;;;;;;;;;5056399;28;20056;-72
2021/06/10 13:46:42;;;;;;;4.43;3.78;;;;;;;;;;5056270;28;20033;-72
2021/06/10 13:49:08;;;;;;;3.38;3.08;;;;;;;;;;5054997;28;20358;-71
2021/06/10 13:51:35;;;;;;;3.30;3.00;;;;;;;;;;5055042;28;20032;-72
2021/06/10 13:54:01;;;;;;;3.60;3.08;;;;;;;;;;5056119;28;20021;-73
2021/06/10 13:56:28;;;;;;;3.80;3.25;;;;;;;;;;5055836;28;20501;-73
2021/06/10 13:58:57;;;;;;;3.28;3.08;;;;;;;;;;5054786;28;20082;-72
2021/06/10 14:01:24;;;;;;;2.88;2.67;;;;;;;;;;5055974;28;20079;-71
2021/06/10 14:03:50;;;;;;;5.15;3.17;;;;;;;;;;5054576;28;20029;-71
2021/06/10 14:06:16;;;;;;;4.95;3.13;;;;;;;;;;5054535;28;20479;-70
2021/06/10 14:08:43;;;;;;;5.32;3.17;;;;;;;;;;5056125;28;20025;-73
2021/06/10 14:11:12;;;;;;;3.65;3.35;;;;;;;;;;5054583;28;20030;-70
2021/06/10 14:13:39;;;;;;;3.90;2.92;;;;;;;;;;5054599;28;20168;-71
2021/06/10 14:16:05;;;;;;;6.20;3.38;;;;;;;;;;5055737;28;20404;-70
2021/06/10 14:18:32;;;;;;;4.25;3.75;;;;;;;;;;5054407;28;20032;-72
2021/06/10 14:20:58;;;;;;;6.75;3.30;;;;;;;;;;5055634;28;20028;-70
2021/06/10 14:23:24;;;;;;;7.00;3.53;;;;;;;;;;5055330;28;20100;-74
2021/06/10 14:25:50;;;;;;;4.55;3.60;;;;;;;;;;5055078;28;20056;-72
2021/06/10 14:28:16;;;;;;;3.42;3.13;;;;;;;;;;5053699;28;20020;-72
2021/06/10 14:33:09;;;;;;;5.53;3.50;;;;;;;;;;5055121;28;20491;-70
2021/06/10 14:35:35;;;;;;;3.72;3.10;;;;;;;;;;5054777;28;20028;-72